Time;durP1;ratioP1;P1;durP2;ratioP2;P2;SDS_P1;SDS_P2;PMS_P1;PMS_P2;Temp;Humidity;BMP_temperature;BMP_pressure;BME280_temperature;BME280_humidity;BME280_pressure;Samples;Min_cycle;Max_cycle;Signal;HPM_P1;HPM_P2
2022/12/25 00:00:21;;;;;;;21.75;7.10;;;;;;;;;;5052205;28;20090;-60
2022/12/25 00:02:47;;;;;;;21.98;7.28;;;;;;;;;;5050983;28;20036;-60
2022/12/25 00:05:12;;;;;;;26.67;6.70;;;;;;;;;;5052019;28;20029;-60
2022/12/25 00:07:38;;;;;;;21.25;7.03;;;;;;;;;;5051166;28;20081;-59
2022/12/25 00:10:04;;;;;;;21.90;6.95;;;;;;;;;;5051108;28;20033;-60
2022/12/25 00:12:29;;;;;;;23.45;7.13;;;;;;;;;;5051617;28;20053;-59
2022/12/25 00:14:55;;;;;;;25.88;7.07;;;;;;;;;;5050953;28;20029;-60
2022/12/25 00:17:20;;;;;;;21.88;6.65;;;;;;;;;;5051943;28;20032;-60
2022/12/25 00:19:45;;;;;;;24.58;7.25;;;;;;;;;;5051375;28;20033;-60
2022/12/25 00:22:11;;;;;;;22.23;6.93;;;;;;;;;;5050556;28;20041;-60
2022/12/25 00:24:36;;;;;;;19.98;7.00;;;;;;;;;;5050127;28;20036;-61
2022/12/25 00:27:01;;;;;;;20.45;6.63;;;;;;;;;;5050019;28;20256;-60
2022/12/25 00:29:27;;;;;;;28.23;7.40;;;;;;;;;;5051531;28;20060;-60
2022/12/25 00:31:52;;;;;;;21.15;6.80;;;;;;;;;;5050682;28;20029;-60
2022/12/25 00:34:18;;;;;;;21.00;6.75;;;;;;;;;;5051536;28;20029;-60
2022/12/25 00:36:43;;;;;;;25.45;6.72;;;;;;;;;;5051162;28;20075;-61
2022/12/25 00:39:09;;;;;;;24.20;7.00;;;;;;;;;;5051528;28;20060;-60
2022/12/25 00:44:18;;;;;;;19.90;7.07;;;;;;;;;;5049228;28;20099;-60
2022/12/25 00:46:43;;;;;;;20.13;6.78;;;;;;;;;;5050788;28;20458;-61
2022/12/25 00:49:10;;;;;;;20.73;6.35;;;;;;;;;;5051088;28;20028;-60
2022/12/25 00:51:36;;;;;;;21.20;6.47;;;;;;;;;;5051234;28;20465;-60
2022/12/25 00:54:01;;;;;;;24.42;6.90;;;;;;;;;;5050359;28;20033;-60
2022/12/25 00:56:27;;;;;;;21.42;5.90;;;;;;;;;;5051313;28;20059;-60
2022/12/25 00:58:53;;;;;;;17.90;6.20;;;;;;;;;;5050428;28;20112;-60
2022/12/25 01:01:19;;;;;;;23.25;6.28;;;;;;;;;;5049726;28;20461;-60
2022/12/25 01:03:44;;;;;;;16.73;5.72;;;;;;;;;;5050985;28;20029;-61
2022/12/25 01:06:11;;;;;;;18.75;6.20;;;;;;;;;;5051325;28;20040;-59
2022/12/25 01:10:20;;;;;;;17.65;5.85;;;;;;;;;;5051437;28;20086;-60
2022/12/25 01:11:23;;;;;;;18.55;6.63;;;;;;;;;;5050913;28;20041;-60
2022/12/25 01:13:49;;;;;;;18.42;6.05;;;;;;;;;;5047438;28;20040;-60
2022/12/25 01:16:15;;;;;;;25.05;6.40;;;;;;;;;;5030116;28;20026;-60
2022/12/25 01:18:42;;;;;;;20.02;6.10;;;;;;;;;;5031389;28;20443;-60
2022/12/25 01:21:09;;;;;;;16.90;5.80;;;;;;;;;;5030395;28;20128;-60
2022/12/25 01:23:36;;;;;;;18.80;5.85;;;;;;;;;;5031269;28;20459;-60
2022/12/25 01:26:10;;;;;;;18.20;5.90;;;;;;;;;;5030577;28;20042;-60
2022/12/25 01:28:36;;;;;;;19.55;5.68;;;;;;;;;;5033032;28;20053;-60
2022/12/25 01:31:02;;;;;;;17.88;6.00;;;;;;;;;;5049126;28;20036;-60
2022/12/25 01:33:28;;;;;;;15.07;5.65;;;;;;;;;;5049879;28;20033;-60
2022/12/25 01:35:54;;;;;;;14.77;5.63;;;;;;;;;;5050414;28;20477;-60
2022/12/25 01:38:20;;;;;;;21.55;5.93;;;;;;;;;;5049904;28;20424;-60
2022/12/25 01:40:45;;;;;;;15.88;5.10;;;;;;;;;;5050684;28;20044;-61
2022/12/25 01:43:31;;;;;;;20.05;6.00;;;;;;;;;;5050977;28;20033;-60
2022/12/25 01:45:56;;;;;;;16.92;5.80;;;;;;;;;;5034138;28;20111;-60
2022/12/25 01:48:30;;;;;;;16.92;5.93;;;;;;;;;;5034547;28;20470;-61
2022/12/25 01:51:00;;;;;;;13.25;5.18;;;;;;;;;;5032637;28;20121;-60
2022/12/25 01:53:26;;;;;;;13.43;4.80;;;;;;;;;;5034857;28;20033;-60
2022/12/25 01:55:57;;;;;;;18.23;4.82;;;;;;;;;;5033934;28;20390;-60
2022/12/25 01:58:23;;;;;;;;;;;;;;;;;;5040366;28;20486;-60
2022/12/25 02:00:50;;;;;;;14.45;4.63;;;;;;;;;;5053950;28;19919;-61
2022/12/25 02:03:16;;;;;;;19.65;5.15;;;;;;;;;;5054746;28;20091;-60
2022/12/25 02:05:42;;;;;;;12.43;4.60;;;;;;;;;;5054393;28;20033;-60
2022/12/25 02:08:11;;;;;;;15.77;4.90;;;;;;;;;;5053578;28;20033;-60
2022/12/25 02:10:38;;;;;;;12.48;4.47;;;;;;;;;;5054078;28;20482;-60
2022/12/25 02:13:04;;;;;;;13.40;4.60;;;;;;;;;;5052149;28;20029;-60
2022/12/25 02:15:59;;;;;;;15.07;4.57;;;;;;;;;;5053248;28;20547;-60
2022/12/25 02:18:40;;;;;;;12.98;4.60;;;;;;;;;;5053221;28;20025;-60
2022/12/25 02:21:14;;;;;;;13.73;4.50;;;;;;;;;;5053354;28;20032;-60
2022/12/25 02:23:56;;;;;;;14.20;5.20;;;;;;;;;;5054335;28;20029;-60
2022/12/25 02:26:25;;;;;;;13.82;4.82;;;;;;;;;;5054397;28;20033;-59
2022/12/25 02:29:03;;;;;;;13.65;4.53;;;;;;;;;;5051573;28;20025;-60
2022/12/25 02:31:58;;;;;;;12.30;4.40;;;;;;;;;;5053700;28;20057;-62
2022/12/25 02:34:46;;;;;;;12.63;4.38;;;;;;;;;;5053488;28;20029;-59
2022/12/25 02:37:25;;;;;;;12.60;4.25;;;;;;;;;;5053092;28;20025;-60
2022/12/25 02:40:09;;;;;;;12.77;4.97;;;;;;;;;;5053328;28;20052;-61
2022/12/25 03:08:08;;;;;;;8.15;3.13;;;;;;;;;;5052272;28;20087;-59
2022/12/25 03:13:27;;;;;;;8.00;3.00;;;;;;;;;;5051560;28;20461;-60
2022/12/25 03:18:37;;;;;;;8.07;3.10;;;;;;;;;;5053086;28;20118;-60
2022/12/25 03:26:55;;;;;;;7.55;2.83;;;;;;;;;;5052803;28;20086;-61
2022/12/25 03:32:35;;;;;;;16.88;3.78;;;;;;;;;;5052041;28;20044;-62
2022/12/25 03:35:24;;;;;;;9.88;3.05;;;;;;;;;;5051892;28;20029;-62
2022/12/25 04:36:38;;;;;;;8.20;3.40;;;;;;;;;;5051623;28;20120;-60
2022/12/25 04:39:03;;;;;;;10.25;3.40;;;;;;;;;;5050935;28;20473;-61
2022/12/25 04:41:28;;;;;;;11.07;3.72;;;;;;;;;;5051576;28;20033;-60
2022/12/25 04:43:54;;;;;;;8.57;3.28;;;;;;;;;;5050416;28;20033;-60
2022/12/25 04:46:19;;;;;;;10.80;3.80;;;;;;;;;;5050860;28;20461;-60
2022/12/25 04:48:45;;;;;;;10.13;3.55;;;;;;;;;;5049431;28;20044;-60
2022/12/25 04:51:21;;;;;;;10.05;3.50;;;;;;;;;;5050510;28;20043;-60
2022/12/25 04:53:48;;;;;;;9.18;3.22;;;;;;;;;;5051228;28;20028;-60
2022/12/25 04:56:14;;;;;;;8.63;3.50;;;;;;;;;;5049292;28;20033;-60
2022/12/25 04:58:40;;;;;;;10.35;3.70;;;;;;;;;;5050968;28;20033;-60
2022/12/25 05:01:06;;;;;;;7.53;3.47;;;;;;;;;;5050596;28;20033;-60
2022/12/25 05:03:32;;;;;;;12.23;3.78;;;;;;;;;;5049636;28;20033;-60
2022/12/25 05:05:57;;;;;;;10.40;3.50;;;;;;;;;;5051065;28;20033;-61
2022/12/25 05:08:23;;;;;;;10.00;3.60;;;;;;;;;;5050248;28;20040;-60
2022/12/25 05:10:49;;;;;;;9.02;3.67;;;;;;;;;;5051597;28;20076;-60
2022/12/25 05:13:15;;;;;;;9.68;3.72;;;;;;;;;;5049055;28;20033;-60
2022/12/25 05:15:41;;;;;;;11.30;4.22;;;;;;;;;;5051470;28;20033;-59
2022/12/25 05:18:07;;;;;;;11.02;3.70;;;;;;;;;;5051326;28;20037;-60
2022/12/25 05:20:32;;;;;;;13.77;3.97;;;;;;;;;;5054438;28;20504;-59
2022/12/25 05:22:58;;;;;;;8.52;4.00;;;;;;;;;;5054391;28;20033;-60
2022/12/25 05:25:23;;;;;;;8.90;3.90;;;;;;;;;;5054687;28;20454;-59
2022/12/25 05:27:49;;;;;;;11.00;3.58;;;;;;;;;;5055127;28;20075;-60
2022/12/25 05:30:14;;;;;;;11.10;3.70;;;;;;;;;;5054541;28;20437;-59
2022/12/25 05:32:39;;;;;;;7.68;3.78;;;;;;;;;;5055261;28;20128;-59
2022/12/25 05:35:07;;;;;;;11.00;4.05;;;;;;;;;;5052008;28;20256;-60
2022/12/25 05:37:33;;;;;;;11.27;3.60;;;;;;;;;;5055152;28;20100;-59
2022/12/25 05:39:59;;;;;;;15.48;4.03;;;;;;;;;;5053652;28;20071;-60
2022/12/25 05:42:24;;;;;;;13.90;4.45;;;;;;;;;;5054228;28;20021;-60
2022/12/25 05:44:49;;;;;;;11.90;3.90;;;;;;;;;;5055186;28;20386;-60
2022/12/25 05:47:15;;;;;;;10.98;3.88;;;;;;;;;;5054212;28;20031;-60
2022/12/25 05:49:41;;;;;;;15.07;5.10;;;;;;;;;;5053880;28;20044;-60
2022/12/25 05:52:06;;;;;;;10.68;3.72;;;;;;;;;;5054059;28;20108;-60
2022/12/25 05:54:33;;;;;;;12.35;3.67;;;;;;;;;;5054750;28;20136;-60
2022/12/25 05:56:58;;;;;;;12.85;3.85;;;;;;;;;;5052769;28;20044;-59
2022/12/25 05:59:23;;;;;;;9.57;3.70;;;;;;;;;;5053964;28;20029;-59
2022/12/25 06:01:49;;;;;;;11.82;4.00;;;;;;;;;;5054434;28;20029;-59
2022/12/25 06:04:14;;;;;;;10.57;4.32;;;;;;;;;;5053446;28;20409;-60
2022/12/25 06:06:40;;;;;;;10.23;4.15;;;;;;;;;;5054345;28;20040;-59
2022/12/25 06:09:05;;;;;;;15.15;4.45;;;;;;;;;;5053768;28;20112;-60
2022/12/25 06:11:31;;;;;;;14.00;4.10;;;;;;;;;;5052752;28;20110;-60
2022/12/25 06:13:56;;;;;;;11.90;4.30;;;;;;;;;;5054460;28;20037;-59
2022/12/25 06:16:21;;;;;;;13.27;4.55;;;;;;;;;;5052334;28;20032;-60
2022/12/25 06:18:51;;;;;;;9.88;4.10;;;;;;;;;;5054427;28;20029;-59
2022/12/25 06:21:16;;;;;;;12.00;4.40;;;;;;;;;;5053346;28;20040;-59
2022/12/25 06:23:41;;;;;;;18.60;4.93;;;;;;;;;;5054164;28;20025;-60
2022/12/25 06:26:10;;;;;;;13.25;3.97;;;;;;;;;;5051272;28;20032;-60
2022/12/25 06:28:36;;;;;;;12.82;4.03;;;;;;;;;;5052801;28;20162;-60
2022/12/25 06:31:09;;;;;;;11.55;4.00;;;;;;;;;;5053812;28;20493;-60
2022/12/25 06:33:35;;;;;;;10.70;4.10;;;;;;;;;;5053817;28;20029;-59
2022/12/25 06:36:09;;;;;;;10.10;4.30;;;;;;;;;;5053850;28;20108;-59
2022/12/25 06:38:35;;;;;;;10.90;4.15;;;;;;;;;;5054122;28;20516;-59
2022/12/25 06:41:10;;;;;;;15.90;4.30;;;;;;;;;;5052298;28;20025;-60
2022/12/25 06:43:36;;;;;;;13.15;4.65;;;;;;;;;;5052677;28;20045;-60
2022/12/25 06:46:08;;;;;;;10.13;3.60;;;;;;;;;;5054006;28;20025;-59
2022/12/25 06:48:34;;;;;;;9.55;4.00;;;;;;;;;;5053954;28;20021;-59
2022/12/25 06:51:01;;;;;;;14.25;5.00;;;;;;;;;;5053854;28;20044;-60
2022/12/25 06:53:27;;;;;;;9.13;4.38;;;;;;;;;;5052913;28;20060;-60
2022/12/25 06:55:53;;;;;;;12.60;4.35;;;;;;;;;;5050264;28;20075;-60
2022/12/25 06:58:18;;;;;;;14.70;5.53;;;;;;;;;;5050654;28;20083;-59
2022/12/25 07:00:43;;;;;;;9.13;3.90;;;;;;;;;;5053590;28;20021;-59
2022/12/25 07:03:17;;;;;;;12.82;4.63;;;;;;;;;;5052795;28;20087;-60
2022/12/25 07:05:43;;;;;;;17.25;4.28;;;;;;;;;;5053438;28;20059;-60
2022/12/25 07:08:09;;;;;;;11.52;4.82;;;;;;;;;;5052669;28;20028;-60
2022/12/25 07:10:34;;;;;;;12.50;4.25;;;;;;;;;;5051318;28;20036;-60
2022/12/25 07:12:59;;;;;;;10.68;3.95;;;;;;;;;;5051998;28;20040;-59
2022/12/25 07:15:25;;;;;;;13.98;3.85;;;;;;;;;;5052386;28;20666;-60
2022/12/25 07:17:50;;;;;;;16.30;4.75;;;;;;;;;;5051217;28;20040;-60
2022/12/25 07:20:16;;;;;;;15.75;4.35;;;;;;;;;;5052554;28;20021;-60
2022/12/25 07:22:41;;;;;;;13.68;4.35;;;;;;;;;;5053008;28;20029;-59
2022/12/25 07:25:07;;;;;;;14.88;4.35;;;;;;;;;;5051480;28;20516;-60
2022/12/25 07:27:32;;;;;;;13.88;4.50;;;;;;;;;;5050788;28;20025;-59
2022/12/25 07:29:57;;;;;;;15.07;4.10;;;;;;;;;;5053108;28;20393;-59
2022/12/25 07:32:23;;;;;;;12.82;3.80;;;;;;;;;;5052023;28;20492;-59
2022/12/25 07:34:48;;;;;;;11.70;4.25;;;;;;;;;;5052588;28;20079;-60
2022/12/25 07:37:14;;;;;;;11.57;3.60;;;;;;;;;;5051964;28;20044;-60
2022/12/25 07:39:39;;;;;;;11.15;3.55;;;;;;;;;;5051210;28;20108;-60
2022/12/25 07:42:05;;;;;;;12.48;3.97;;;;;;;;;;5050028;28;20037;-59
2022/12/25 07:44:30;;;;;;;11.00;4.25;;;;;;;;;;5051578;28;20104;-59
2022/12/25 07:46:55;;;;;;;13.35;3.97;;;;;;;;;;5052787;28;20072;-59
2022/12/25 07:49:21;;;;;;;15.88;4.30;;;;;;;;;;5051893;28;20385;-60
2022/12/25 07:51:46;;;;;;;9.20;4.05;;;;;;;;;;5039162;28;20072;-60
2022/12/25 07:54:12;;;;;;;12.23;3.95;;;;;;;;;;5045931;28;20068;-61
2022/12/25 07:56:37;;;;;;;13.27;3.80;;;;;;;;;;5050487;28;20484;-60
2022/12/25 07:59:03;;;;;;;9.25;3.45;;;;;;;;;;5051368;28;20048;-60
2022/12/25 08:01:28;;;;;;;12.43;3.35;;;;;;;;;;5050294;28;20321;-60
2022/12/25 08:03:57;;;;;;;10.05;3.67;;;;;;;;;;5052429;28;20029;-60
2022/12/25 08:06:28;;;;;;;11.32;4.03;;;;;;;;;;5051623;28;20044;-60
2022/12/25 08:08:54;;;;;;;;;;;;;;;;;;5053023;28;20374;-60
2022/12/25 08:11:19;;;;;;;11.00;4.00;;;;;;;;;;5043606;28;20365;-61
2022/12/25 08:13:45;;;;;;;11.07;3.70;;;;;;;;;;5039435;28;20024;-60
2022/12/25 08:16:10;;;;;;;16.20;4.22;;;;;;;;;;5050496;28;20055;-61
2022/12/25 08:18:37;;;;;;;8.85;3.83;;;;;;;;;;5051683;28;20025;-60
2022/12/25 08:21:05;;;;;;;18.60;4.18;;;;;;;;;;5052459;28;20028;-60
2022/12/25 08:23:33;;;;;;;13.05;4.18;;;;;;;;;;5051295;28;20067;-61
2022/12/25 08:26:00;;;;;;;10.18;3.90;;;;;;;;;;5050698;28;20052;-61
2022/12/25 08:28:25;;;;;;;10.00;3.47;;;;;;;;;;5051257;28;20029;-61
2022/12/25 08:30:50;;;;;;;11.02;4.18;;;;;;;;;;5051307;28;20039;-60
2022/12/25 08:33:16;;;;;;;13.20;4.65;;;;;;;;;;5051069;28;20115;-60
2022/12/25 08:35:41;;;;;;;13.80;4.22;;;;;;;;;;5051710;28;20035;-60
2022/12/25 08:38:07;;;;;;;10.73;4.45;;;;;;;;;;5034047;28;20416;-63
2022/12/25 08:40:32;;;;;;;12.43;4.93;;;;;;;;;;5049309;28;20967;-60
2022/12/25 08:42:58;;;;;;;9.15;3.97;;;;;;;;;;5050731;28;20037;-60
2022/12/25 08:45:23;;;;;;;11.98;3.83;;;;;;;;;;5050598;28;20033;-61
2022/12/25 08:47:54;;;;;;;7.97;3.70;;;;;;;;;;5050927;28;20037;-59
2022/12/25 08:50:20;;;;;;;15.10;4.40;;;;;;;;;;5047601;28;20025;-59
2022/12/25 08:52:46;;;;;;;11.60;4.40;;;;;;;;;;5050244;28;20094;-59
2022/12/25 08:55:11;;;;;;;11.13;4.20;;;;;;;;;;5051361;28;20029;-60
2022/12/25 08:57:36;;;;;;;13.38;4.53;;;;;;;;;;5050749;28;20132;-59
2022/12/25 09:00:02;;;;;;;16.30;4.82;;;;;;;;;;5049445;28;20056;-60
2022/12/25 09:02:28;;;;;;;14.65;5.35;;;;;;;;;;5050387;28;20033;-59
2022/12/25 09:04:53;;;;;;;17.38;5.28;;;;;;;;;;5051255;28;20366;-61
2022/12/25 09:07:19;;;;;;;12.98;4.97;;;;;;;;;;5050820;28;20345;-61
2022/12/25 09:09:44;;;;;;;12.15;5.00;;;;;;;;;;5050279;28;20448;-60
2022/12/25 09:12:10;;;;;;;14.48;5.18;;;;;;;;;;5051488;28;20029;-60
2022/12/25 09:14:35;;;;;;;11.18;4.43;;;;;;;;;;5046589;28;20051;-60
2022/12/25 09:17:01;;;;;;;11.95;4.88;;;;;;;;;;5051199;28;20394;-60
2022/12/25 09:19:26;;;;;;;11.13;5.05;;;;;;;;;;5050720;28;20094;-59
2022/12/25 09:21:52;;;;;;;13.00;5.47;;;;;;;;;;5050809;28;20072;-59
2022/12/25 09:24:19;;;;;;;14.70;5.70;;;;;;;;;;5050344;28;20471;-62
2022/12/25 09:26:44;;;;;;;14.73;5.32;;;;;;;;;;5049996;28;20101;-60
2022/12/25 09:29:10;;;;;;;16.15;5.88;;;;;;;;;;5049253;28;20056;-60
2022/12/25 09:31:35;;;;;;;11.50;4.68;;;;;;;;;;5049542;28;20836;-60
2022/12/25 09:34:01;;;;;;;18.80;4.95;;;;;;;;;;5044453;28;20140;-61
2022/12/25 09:36:27;;;;;;;11.52;4.57;;;;;;;;;;5050290;28;20060;-61
2022/12/25 09:38:52;;;;;;;14.23;4.60;;;;;;;;;;5050854;28;20111;-62
2022/12/25 09:41:18;;;;;;;14.27;4.43;;;;;;;;;;5049377;28;20029;-62
2022/12/25 09:43:48;;;;;;;9.90;4.15;;;;;;;;;;5050826;28;20048;-61
2022/12/25 09:46:18;;;;;;;12.52;5.40;;;;;;;;;;5049818;28;20393;-62
2022/12/25 09:48:54;;;;;;;12.53;6.03;;;;;;;;;;5050986;28;20033;-61
2022/12/25 09:51:19;;;;;;;17.13;6.43;;;;;;;;;;5041368;28;20281;-61
2022/12/25 09:53:55;;;;;;;12.73;6.30;;;;;;;;;;5050903;28;20039;-59
2022/12/25 09:56:24;;;;;;;17.25;6.13;;;;;;;;;;5029875;28;20029;-60
2022/12/25 09:58:51;;;;;;;15.02;7.10;;;;;;;;;;5031379;28;20465;-60
2022/12/25 10:01:39;;;;;;;14.75;6.93;;;;;;;;;;5049335;28;20044;-62
2022/12/25 10:04:30;;;;;;;15.00;6.90;;;;;;;;;;5050870;28;20033;-61
2022/12/25 10:07:15;;;;;;;14.02;6.03;;;;;;;;;;5047764;28;20104;-61
2022/12/25 10:09:49;;;;;;;12.48;5.55;;;;;;;;;;5054113;28;20118;-61
2022/12/25 10:12:26;;;;;;;16.27;5.95;;;;;;;;;;5052119;28;20025;-61
2022/12/25 10:15:24;;;;;;;15.70;6.30;;;;;;;;;;5044849;28;20045;-61
2022/12/25 10:18:24;;;;;;;20.65;8.70;;;;;;;;;;5052226;28;20059;-61
2022/12/25 10:20:58;;;;;;;23.00;10.13;;;;;;;;;;5046874;28;20170;-62
2022/12/25 10:23:35;;;;;;;18.95;8.73;;;;;;;;;;5050028;28;20024;-60
2022/12/25 10:26:03;;;;;;;18.75;7.72;;;;;;;;;;5052504;28;20124;-61
2022/12/25 10:28:40;;;;;;;14.52;6.70;;;;;;;;;;5051589;28;20029;-61
2022/12/25 10:31:18;;;;;;;15.40;7.25;;;;;;;;;;5051961;28;20048;-62
2022/12/25 10:33:43;;;;;;;15.93;7.85;;;;;;;;;;5053031;28;20025;-60
2022/12/25 10:36:09;;;;;;;18.92;7.57;;;;;;;;;;5052195;28;20037;-60
2022/12/25 10:38:35;;;;;;;17.20;7.40;;;;;;;;;;5050787;28;20025;-60
2022/12/25 10:41:29;;;;;;;16.42;8.00;;;;;;;;;;5043892;28;20036;-60
2022/12/25 10:43:55;;;;;;;20.48;8.38;;;;;;;;;;5053513;28;20064;-61
2022/12/25 10:46:25;;;;;;;19.15;8.23;;;;;;;;;;5052279;28;20025;-61
2022/12/25 10:48:56;;;;;;;16.58;7.63;;;;;;;;;;5053341;28;20029;-61
2022/12/25 10:51:28;;;;;;;18.45;7.95;;;;;;;;;;5050946;28;20465;-61
2022/12/25 10:53:53;;;;;;;14.80;7.00;;;;;;;;;;5052844;28;20470;-62
2022/12/25 10:56:19;;;;;;;14.70;6.22;;;;;;;;;;5050405;28;20051;-63
2022/12/25 10:58:44;;;;;;;14.75;6.20;;;;;;;;;;5052971;28;20021;-62
2022/12/25 11:01:10;;;;;;;17.77;7.00;;;;;;;;;;5051541;28;20033;-61
2022/12/25 11:03:43;;;;;;;13.93;6.13;;;;;;;;;;5051285;28;20385;-61
2022/12/25 11:06:27;;;;;;;14.35;6.60;;;;;;;;;;5053153;28;20588;-61
2022/12/25 11:08:58;;;;;;;17.58;6.13;;;;;;;;;;5053774;28;20033;-61
2022/12/25 11:11:25;;;;;;;17.43;8.93;;;;;;;;;;5050954;28;20064;-62
2022/12/25 11:13:57;;;;;;;16.92;7.35;;;;;;;;;;5050997;28;20386;-62
2022/12/25 11:16:39;;;;;;;12.30;6.38;;;;;;;;;;5048117;28;20051;-62
2022/12/25 11:19:29;;;;;;;12.25;6.65;;;;;;;;;;5048919;28;20033;-62
2022/12/25 11:22:00;;;;;;;16.33;5.97;;;;;;;;;;5047716;28;20025;-62
2022/12/25 11:24:28;;;;;;;14.43;5.70;;;;;;;;;;5050045;28;20068;-62
2022/12/25 11:27:00;;;;;;;10.00;5.25;;;;;;;;;;5048039;28;20033;-62
2022/12/25 11:29:45;;;;;;;12.90;5.40;;;;;;;;;;5047999;28;20544;-61
2022/12/25 11:32:18;;;;;;;12.82;5.60;;;;;;;;;;5049639;28;20474;-63
2022/12/25 11:34:45;;;;;;;11.05;5.45;;;;;;;;;;5049028;28;20037;-61
2022/12/25 11:37:23;;;;;;;13.32;6.10;;;;;;;;;;5050378;28;20025;-61
2022/12/25 11:39:48;;;;;;;15.00;6.40;;;;;;;;;;5051082;28;20033;-61
2022/12/25 11:42:23;;;;;;;10.55;5.93;;;;;;;;;;5046598;28;20079;-62
2022/12/25 11:44:50;;;;;;;10.68;5.68;;;;;;;;;;5051690;28;20079;-61
2022/12/25 11:47:37;;;;;;;11.10;6.40;;;;;;;;;;5050993;28;20052;-62
2022/12/25 11:50:14;;;;;;;13.10;6.55;;;;;;;;;;5052973;28;20086;-61
2022/12/25 11:52:43;;;;;;;12.65;6.03;;;;;;;;;;5048647;28;20341;-61
2022/12/25 11:55:25;;;;;;;10.68;4.93;;;;;;;;;;5051466;28;20112;-61
2022/12/25 11:57:56;;;;;;;10.65;5.72;;;;;;;;;;5050304;28;20053;-60
2022/12/25 12:00:22;;;;;;;10.68;5.70;;;;;;;;;;5052198;28;20029;-62
2022/12/25 12:02:58;;;;;;;12.23;5.55;;;;;;;;;;5050850;28;20041;-60
2022/12/25 12:05:47;;;;;;;10.40;4.63;;;;;;;;;;5050710;28;20488;-62
2022/12/25 12:08:13;;;;;;;10.00;5.40;;;;;;;;;;5051576;28;20044;-60
2022/12/25 12:11:00;;;;;;;11.02;6.38;;;;;;;;;;5050085;28;20115;-60
2022/12/25 12:13:42;;;;;;;14.52;6.25;;;;;;;;;;5051582;28;20021;-62
2022/12/25 12:16:09;;;;;;;18.40;8.93;;;;;;;;;;5051174;28;20029;-61
2022/12/25 12:18:35;;;;;;;18.52;9.50;;;;;;;;;;5050176;28;20424;-63
2022/12/25 12:21:04;;;;;;;14.35;8.73;;;;;;;;;;5048343;28;20067;-62
2022/12/25 12:23:34;;;;;;;12.90;7.00;;;;;;;;;;5050273;28;20036;-62
2022/12/25 12:26:00;;;;;;;11.55;7.10;;;;;;;;;;5046367;28;20025;-61
2022/12/25 12:28:29;;;;;;;11.35;6.38;;;;;;;;;;5049473;28;20108;-62
2022/12/25 12:31:04;;;;;;;15.23;6.18;;;;;;;;;;5049777;28;20557;-64
2022/12/25 12:33:38;;;;;;;12.63;7.10;;;;;;;;;;5051005;28;20033;-62
2022/12/25 12:36:05;;;;;;;27.35;15.77;;;;;;;;;;5050938;28;20048;-62
2022/12/25 12:38:32;;;;;;;21.90;12.35;;;;;;;;;;5049276;28;20132;-62
2022/12/25 12:41:06;;;;;;;17.35;9.55;;;;;;;;;;5051387;28;20119;-62
2022/12/25 12:43:38;;;;;;;16.95;9.80;;;;;;;;;;5051174;28;20055;-62
2022/12/25 12:46:15;;;;;;;14.52;7.88;;;;;;;;;;5030158;28;20029;-62
2022/12/25 12:48:44;;;;;;;17.30;8.85;;;;;;;;;;5048254;28;20550;-62
2022/12/25 12:51:12;;;;;;;16.48;9.13;;;;;;;;;;5051960;28;20033;-61
2022/12/25 12:53:40;;;;;;;14.55;8.07;;;;;;;;;;5048082;28;20037;-62
2022/12/25 12:56:14;;;;;;;14.77;9.00;;;;;;;;;;5050140;28;20061;-61
2022/12/25 12:58:45;;;;;;;15.45;8.77;;;;;;;;;;5046502;28;20061;-61
2022/12/25 13:01:25;;;;;;;15.20;8.15;;;;;;;;;;5045140;28;20389;-62
2022/12/25 13:04:15;;;;;;;16.60;7.70;;;;;;;;;;5045594;28;20385;-61
2022/12/25 13:06:57;;;;;;;13.52;7.53;;;;;;;;;;5046300;28;20072;-61
2022/12/25 13:09:44;;;;;;;16.13;7.80;;;;;;;;;;5043804;28;20060;-61
2022/12/25 13:12:11;;;;;;;12.10;7.00;;;;;;;;;;5040666;28;20112;-62
2022/12/25 13:14:37;;;;;;;12.15;6.75;;;;;;;;;;5048193;28;20033;-61
2022/12/25 13:17:06;;;;;;;16.15;7.60;;;;;;;;;;5049876;28;20036;-62
2022/12/25 13:19:33;;;;;;;13.45;7.55;;;;;;;;;;5044455;28;20060;-63
2022/12/25 13:22:04;;;;;;;14.10;8.10;;;;;;;;;;5047470;28;20454;-63
2022/12/25 13:24:32;;;;;;;11.70;7.60;;;;;;;;;;5045699;28;20028;-62
2022/12/25 13:26:58;;;;;;;12.60;7.82;;;;;;;;;;5045262;28;20029;-61
2022/12/25 13:29:32;;;;;;;13.38;7.88;;;;;;;;;;5044949;28;20417;-63
2022/12/25 13:32:00;;;;;;;15.68;9.40;;;;;;;;;;5047670;28;20037;-61
2022/12/25 13:34:33;;;;;;;15.25;9.20;;;;;;;;;;5049257;28;20037;-61
2022/12/25 13:37:04;;;;;;;20.63;9.55;;;;;;;;;;5051081;28;20029;-62
2022/12/25 13:39:32;;;;;;;15.20;9.38;;;;;;;;;;5051873;28;20466;-63
2022/12/25 13:42:04;;;;;;;17.70;9.00;;;;;;;;;;5054916;28;20025;-62
2022/12/25 13:44:34;;;;;;;14.30;8.75;;;;;;;;;;5052238;28;20485;-62
2022/12/25 13:47:16;;;;;;;15.98;8.73;;;;;;;;;;5061574;28;20029;-62
2022/12/25 13:49:41;;;;;;;14.65;8.52;;;;;;;;;;5053746;28;20084;-63
2022/12/25 13:52:14;;;;;;;19.38;10.80;;;;;;;;;;5041065;28;20039;-62
2022/12/25 13:54:49;;;;;;;17.08;9.18;;;;;;;;;;5052558;28;20033;-61
2022/12/25 13:57:16;;;;;;;18.40;9.20;;;;;;;;;;5052355;28;20536;-62
2022/12/25 13:59:43;;;;;;;18.92;9.40;;;;;;;;;;5052617;28;20524;-61
2022/12/25 14:02:19;;;;;;;17.63;9.95;;;;;;;;;;5053590;28;20041;-62
2022/12/25 14:04:45;;;;;;;22.52;11.27;;;;;;;;;;5052321;28;20136;-62
2022/12/25 14:07:11;;;;;;;16.35;9.52;;;;;;;;;;5053109;28;20467;-62
2022/12/25 14:09:38;;;;;;;18.83;9.70;;;;;;;;;;5053593;28;20087;-62
2022/12/25 14:12:04;;;;;;;15.02;7.60;;;;;;;;;;5051849;28;20115;-63
2022/12/25 14:14:30;;;;;;;12.93;7.78;;;;;;;;;;5068137;28;20116;-64
2022/12/25 14:16:57;;;;;;;15.50;8.00;;;;;;;;;;5053957;28;20041;-62
2022/12/25 14:19:28;;;;;;;14.10;7.82;;;;;;;;;;5052901;28;20033;-61
2022/12/25 14:22:01;;;;;;;13.30;7.95;;;;;;;;;;5053085;28;20044;-60
2022/12/25 14:24:28;;;;;;;13.52;7.53;;;;;;;;;;5053321;28;20041;-60
2022/12/25 14:27:16;;;;;;;16.80;8.02;;;;;;;;;;5052059;28;20017;-61
2022/12/25 14:29:45;;;;;;;15.07;7.47;;;;;;;;;;5053485;28;20025;-61
2022/12/25 14:32:15;;;;;;;14.13;8.18;;;;;;;;;;5053574;28;20067;-60
2022/12/25 14:34:45;;;;;;;13.77;7.72;;;;;;;;;;5052835;28;20132;-61
2022/12/25 14:37:18;;;;;;;14.63;7.28;;;;;;;;;;5053102;28;20037;-61
2022/12/25 14:39:46;;;;;;;12.40;7.38;;;;;;;;;;5052704;28;20074;-61
2022/12/25 14:42:20;;;;;;;13.93;7.22;;;;;;;;;;5053592;28;20078;-60
2022/12/25 14:44:57;;;;;;;11.75;6.78;;;;;;;;;;5052514;28;20474;-60
2022/12/25 14:47:22;;;;;;;13.45;9.02;;;;;;;;;;5053705;28;20025;-60
2022/12/25 14:49:48;;;;;;;15.02;9.60;;;;;;;;;;5052280;28;20035;-60
2022/12/25 14:52:21;;;;;;;17.40;9.55;;;;;;;;;;5053386;28;20128;-60
2022/12/25 14:54:56;;;;;;;14.95;9.80;;;;;;;;;;5051313;28;20029;-60
2022/12/25 14:57:28;;;;;;;16.38;9.57;;;;;;;;;;5053265;28;20044;-60
2022/12/25 15:00:01;;;;;;;18.45;10.82;;;;;;;;;;5052059;28;20047;-60
2022/12/25 15:02:36;;;;;;;19.90;13.18;;;;;;;;;;5052030;28;20040;-60
2022/12/25 15:05:01;;;;;;;19.58;12.63;;;;;;;;;;5051892;28;20029;-60
2022/12/25 15:07:29;;;;;;;18.15;11.30;;;;;;;;;;5051671;28;20033;-63
2022/12/25 15:09:54;;;;;;;18.90;11.35;;;;;;;;;;5050936;28;20529;-60
2022/12/25 15:12:20;;;;;;;20.02;11.25;;;;;;;;;;5051033;28;20043;-60
2022/12/25 15:14:45;;;;;;;17.75;9.93;;;;;;;;;;5049203;28;20355;-60
2022/12/25 15:17:25;;;;;;;17.02;10.20;;;;;;;;;;5050820;28;20027;-61
2022/12/25 15:19:52;;;;;;;17.50;10.40;;;;;;;;;;5050814;28;20029;-61
2022/12/25 15:22:17;;;;;;;17.23;10.98;;;;;;;;;;5053205;28;20048;-61
2022/12/25 15:24:43;;;;;;;19.05;10.93;;;;;;;;;;5050518;28;20033;-61
2022/12/25 15:27:14;;;;;;;16.40;10.27;;;;;;;;;;5058517;28;20385;-61
2022/12/25 15:29:40;;;;;;;20.77;10.82;;;;;;;;;;5037773;28;20504;-61
2022/12/25 15:32:13;;;;;;;18.80;11.35;;;;;;;;;;5049130;28;20040;-61
2022/12/25 15:34:38;;;;;;;18.08;11.23;;;;;;;;;;5050428;28;20041;-61
2022/12/25 15:37:03;;;;;;;17.95;11.32;;;;;;;;;;5048799;28;20029;-61
2022/12/25 15:39:29;;;;;;;21.60;13.13;;;;;;;;;;5052305;28;20484;-61
2022/12/25 15:42:10;;;;;;;20.30;11.80;;;;;;;;;;5049894;28;20219;-60
2022/12/25 15:44:35;;;;;;;18.48;12.23;;;;;;;;;;5038780;28;20072;-61
2022/12/25 15:47:01;;;;;;;21.08;12.95;;;;;;;;;;5046500;28;20056;-61
2022/12/25 15:49:26;;;;;;;20.95;13.77;;;;;;;;;;5051810;28;20033;-61
2022/12/25 15:51:51;;;;;;;19.42;12.98;;;;;;;;;;5051874;28;20412;-61
2022/12/25 15:54:17;;;;;;;17.38;11.98;;;;;;;;;;5050617;28;20048;-61
2022/12/25 15:56:55;;;;;;;21.17;13.13;;;;;;;;;;5050286;28;20406;-61
2022/12/25 15:59:21;;;;;;;19.98;12.40;;;;;;;;;;5050599;28;20108;-61
2022/12/25 16:01:55;;;;;;;24.60;14.35;;;;;;;;;;5048459;28;20036;-61
2022/12/25 16:04:21;;;;;;;23.83;14.35;;;;;;;;;;5051235;28;20084;-61
2022/12/25 16:06:47;;;;;;;25.13;13.95;;;;;;;;;;5050272;28;20040;-61
2022/12/25 16:09:14;;;;;;;24.60;14.00;;;;;;;;;;5051121;28;20478;-61
2022/12/25 16:11:40;;;;;;;24.88;14.02;;;;;;;;;;5049180;28;20075;-62
2022/12/25 16:14:05;;;;;;;20.95;14.50;;;;;;;;;;5050221;28;20048;-61
2022/12/25 16:16:31;;;;;;;22.13;14.20;;;;;;;;;;5046594;28;20040;-61
2022/12/25 16:18:57;;;;;;;20.45;13.07;;;;;;;;;;5048776;28;20021;-61
2022/12/25 16:21:23;;;;;;;23.48;15.35;;;;;;;;;;5052021;28;20036;-61
2022/12/25 16:23:48;;;;;;;26.85;16.80;;;;;;;;;;5048545;28;20032;-61